Time;durP1;ratioP1;P1;durP2;ratioP2;P2;SDS_P1;SDS_P2;PMS_P1;PMS_P2;Temp;Humidity;BMP_temperature;BMP_pressure;BME280_temperature;BME280_humidity;BME280_pressure;Samples;Min_cycle;Max_cycle;Signal;HPM_P1;HPM_P2
2022/11/08 00:01:33;;;;;;;44.83;25.83;;;;;;;;;;4919286;29;20075;-71
2022/11/08 00:04:03;;;;;;;38.40;24.40;;;;;;;;;;4919107;29;20076;-71
2022/11/08 00:14:49;;;;;;;37.17;21.67;;;;;;;;;;4918944;29;20067;-71
2022/11/08 00:17:17;;;;;;;35.30;21.10;;;;;;;;;;4918934;29;20440;-71
2022/11/08 00:19:45;;;;;;;33.97;21.75;;;;;;;;;;4918838;29;20044;-71
2022/11/08 00:22:13;;;;;;;39.92;22.08;;;;;;;;;;4918937;29;20079;-70
2022/11/08 00:24:41;;;;;;;33.55;19.70;;;;;;;;;;4917592;29;20051;-71
2022/11/08 00:27:12;;;;;;;33.03;20.13;;;;;;;;;;4918708;29;20074;-71
2022/11/08 00:29:39;;;;;;;30.60;19.60;;;;;;;;;;4918871;29;20040;-70
2022/11/08 00:32:08;;;;;;;32.03;20.23;;;;;;;;;;4918404;29;20044;-71
2022/11/08 00:34:35;;;;;;;32.67;20.00;;;;;;;;;;4918645;29;20068;-71
2022/11/08 00:37:03;;;;;;;33.05;18.45;;;;;;;;;;4918559;29;20060;-70
2022/11/08 00:39:30;;;;;;;34.03;19.83;;;;;;;;;;4918409;29;20119;-71
2022/11/08 00:41:58;;;;;;;31.25;20.27;;;;;;;;;;4918607;29;20048;-71
2022/11/08 00:44:25;;;;;;;35.53;21.15;;;;;;;;;;4918261;29;20096;-70
2022/11/08 00:46:53;;;;;;;38.88;20.70;;;;;;;;;;4918386;29;20406;-70
2022/11/08 00:49:21;;;;;;;35.75;21.23;;;;;;;;;;4918414;29;20095;-71
2022/11/08 00:51:48;;;;;;;35.03;21.35;;;;;;;;;;4918137;29;20131;-71
2022/11/08 00:54:16;;;;;;;38.10;22.08;;;;;;;;;;4918331;29;20056;-71
2022/11/08 00:56:45;;;;;;;33.78;20.90;;;;;;;;;;4918261;29;20123;-71
2022/11/08 00:59:13;;;;;;;35.92;22.20;;;;;;;;;;4918186;29;20476;-70
2022/11/08 01:01:41;;;;;;;41.28;23.17;;;;;;;;;;4918116;29;20044;-70
2022/11/08 01:04:09;;;;;;;47.15;24.27;;;;;;;;;;4918030;29;20513;-70
2022/11/08 01:06:37;;;;;;;39.50;24.38;;;;;;;;;;4918052;29;20126;-70
2022/11/08 01:09:05;;;;;;;46.88;26.67;;;;;;;;;;4916657;29;20071;-71
2022/11/08 01:11:32;;;;;;;50.13;30.33;;;;;;;;;;4917893;29;20098;-71
2022/11/08 01:14:00;;;;;;;46.17;27.00;;;;;;;;;;4918233;29;20071;-71
2022/11/08 01:16:29;;;;;;;42.55;25.20;;;;;;;;;;4917809;29;20071;-71
2022/11/08 01:18:57;;;;;;;42.53;25.20;;;;;;;;;;4917946;29;20067;-70
2022/11/08 01:21:25;;;;;;;42.28;25.92;;;;;;;;;;4916502;29;20048;-70
2022/11/08 01:23:53;;;;;;;59.00;28.38;;;;;;;;;;4917828;29;20048;-71
2022/11/08 01:26:25;;;;;;;44.13;25.38;;;;;;;;;;4916395;29;20080;-71
2022/11/08 01:28:53;;;;;;;43.72;25.05;;;;;;;;;;4917610;29;20063;-71
2022/11/08 01:31:21;;;;;;;50.15;26.30;;;;;;;;;;4917587;29;20119;-70
2022/11/08 01:33:49;;;;;;;48.88;26.70;;;;;;;;;;4917680;29;20054;-71
2022/11/08 01:36:19;;;;;;;49.67;26.30;;;;;;;;;;4917426;29;20040;-70
2022/11/08 01:38:47;;;;;;;50.40;28.88;;;;;;;;;;4917405;29;20052;-71
2022/11/08 01:41:15;;;;;;;50.05;28.58;;;;;;;;;;4917349;29;20036;-71
2022/11/08 01:43:44;;;;;;;55.20;29.52;;;;;;;;;;4917243;29;20407;-71
2022/11/08 01:46:18;;;;;;;49.15;27.67;;;;;;;;;;4917155;29;20059;-72
2022/11/08 01:48:59;;;;;;;50.25;30.00;;;;;;;;;;4917313;29;20039;-71
2022/11/08 01:51:28;;;;;;;51.03;30.10;;;;;;;;;;4917277;29;20079;-71
2022/11/08 01:53:57;;;;;;;52.45;29.50;;;;;;;;;;4917285;29;20265;-71
2022/11/08 01:56:24;;;;;;;52.72;30.58;;;;;;;;;;4917125;29;20660;-71
2022/11/08 01:58:52;;;;;;;55.17;30.48;;;;;;;;;;4917149;29;20056;-71
2022/11/08 02:01:20;;;;;;;53.13;31.48;;;;;;;;;;4916985;29;20039;-71
2022/11/08 02:03:47;;;;;;;52.13;29.75;;;;;;;;;;4917132;29;20055;-71
2022/11/08 02:06:15;;;;;;;50.35;29.05;;;;;;;;;;4916779;29;20067;-71
2022/11/08 02:08:43;;;;;;;57.60;30.75;;;;;;;;;;4916947;29;20463;-71
2022/11/08 02:11:12;;;;;;;49.47;29.38;;;;;;;;;;4917004;29;20032;-71
2022/11/08 02:13:40;;;;;;;49.63;29.30;;;;;;;;;;4916866;29;20044;-71
2022/11/08 02:16:11;;;;;;;48.90;27.90;;;;;;;;;;4916833;29;20048;-71
2022/11/08 02:18:39;;;;;;;44.42;27.30;;;;;;;;;;4916557;29;20055;-70
2022/11/08 02:21:10;;;;;;;47.47;27.23;;;;;;;;;;4916249;29;20044;-70
2022/11/08 02:23:40;;;;;;;41.28;24.40;;;;;;;;;;4916769;29;20099;-70
2022/11/08 02:26:08;;;;;;;47.13;26.88;;;;;;;;;;4916756;29;20533;-70
2022/11/08 02:28:53;;;;;;;48.72;28.15;;;;;;;;;;4916771;29;20075;-70
2022/11/08 02:31:21;;;;;;;;;;;;;;;;;;4917282;29;20052;-71
2022/11/08 02:33:48;;;;;;;51.47;29.23;;;;;;;;;;4916554;29;20022;-71
2022/11/08 02:36:21;;;;;;;45.83;28.20;;;;;;;;;;4916450;29;20044;-70
2022/11/08 02:38:53;;;;;;;58.33;29.63;;;;;;;;;;4916568;29;20052;-70
2022/11/08 02:41:21;;;;;;;49.85;27.52;;;;;;;;;;4916604;29;20048;-70
2022/11/08 02:43:48;;;;;;;49.20;27.90;;;;;;;;;;4916863;29;20067;-70
2022/11/08 02:46:15;;;;;;;46.42;28.23;;;;;;;;;;4916551;29;20124;-71
2022/11/08 02:48:43;;;;;;;51.53;28.67;;;;;;;;;;4916368;29;20132;-71
2022/11/08 02:51:10;;;;;;;42.00;25.40;;;;;;;;;;4916495;29;20064;-70
2022/11/08 02:53:38;;;;;;;43.03;23.80;;;;;;;;;;4916226;29;20131;-71
2022/11/08 02:56:05;;;;;;;39.55;23.75;;;;;;;;;;4916293;29;20480;-70
2022/11/08 02:58:32;;;;;;;36.78;22.63;;;;;;;;;;4930872;29;20087;-70
2022/11/08 03:01:00;;;;;;;39.60;23.25;;;;;;;;;;4916363;29;20032;-71
2022/11/08 03:03:27;;;;;;;36.17;23.15;;;;;;;;;;4916080;29;20091;-70
2022/11/08 03:05:58;;;;;;;44.10;25.35;;;;;;;;;;4915304;29;20380;-70
2022/11/08 03:08:25;;;;;;;42.95;25.52;;;;;;;;;;4916210;29;20075;-70
2022/11/08 03:10:53;;;;;;;43.47;25.45;;;;;;;;;;4915833;29;20111;-70
2022/11/08 03:13:20;;;;;;;44.60;25.60;;;;;;;;;;4899147;29;20076;-70
2022/11/08 03:15:47;;;;;;;49.30;25.30;;;;;;;;;;4915927;29;20074;-70
2022/11/08 03:18:15;;;;;;;47.80;27.02;;;;;;;;;;4916081;29;20126;-70
2022/11/08 03:20:43;;;;;;;43.42;25.90;;;;;;;;;;4915074;29;20079;-70
2022/11/08 03:23:10;;;;;;;46.28;25.25;;;;;;;;;;4916013;29;20100;-70
2022/11/08 03:25:38;;;;;;;42.08;24.45;;;;;;;;;;4916042;29;20082;-70
2022/11/08 03:28:08;;;;;;;41.60;23.90;;;;;;;;;;4916144;29;20451;-70
2022/11/08 03:30:36;;;;;;;39.92;24.52;;;;;;;;;;4915985;29;20052;-70
2022/11/08 03:33:03;;;;;;;42.58;24.98;;;;;;;;;;4918714;29;20068;-70
2022/11/08 03:35:31;;;;;;;43.90;25.13;;;;;;;;;;4919668;29;20047;-70
2022/11/08 03:37:59;;;;;;;42.03;26.30;;;;;;;;;;4919652;29;20144;-70
2022/11/08 03:40:26;;;;;;;51.65;26.60;;;;;;;;;;4919687;29;20062;-70
2022/11/08 03:42:58;;;;;;;42.80;26.02;;;;;;;;;;4919715;29;20049;-70
2022/11/08 03:45:26;;;;;;;44.65;25.83;;;;;;;;;;4919776;29;20052;-70
2022/11/08 03:47:53;;;;;;;53.08;28.90;;;;;;;;;;4919344;29;20044;-70
2022/11/08 03:50:21;;;;;;;52.78;31.42;;;;;;;;;;4919485;29;20360;-70
2022/11/08 03:52:54;;;;;;;44.05;26.63;;;;;;;;;;4919122;29;20160;-70
2022/11/08 03:55:23;;;;;;;44.35;25.25;;;;;;;;;;4919346;29;20119;-70
2022/11/08 03:57:51;;;;;;;46.28;26.48;;;;;;;;;;4933892;29;20131;-70
2022/11/08 04:00:20;;;;;;;46.38;26.02;;;;;;;;;;4919177;29;20505;-70
2022/11/08 04:02:47;;;;;;;50.00;26.65;;;;;;;;;;4919225;29;20080;-70
2022/11/08 04:05:15;;;;;;;51.10;28.27;;;;;;;;;;4919153;29;20403;-71
2022/11/08 04:07:43;;;;;;;48.58;29.17;;;;;;;;;;4917967;29;20103;-69
2022/11/08 04:10:11;;;;;;;39.33;23.95;;;;;;;;;;4918884;29;20075;-70
2022/11/08 04:15:29;;;;;;;36.05;23.40;;;;;;;;;;4918997;29;20048;-69
2022/11/08 04:23:31;;;;;;;37.47;20.80;;;;;;;;;;4918723;29;20454;-69
2022/11/08 04:26:00;;;;;;;32.70;21.10;;;;;;;;;;4918840;29;20132;-69
2022/11/08 04:28:31;;;;;;;36.88;22.90;;;;;;;;;;4918843;29;20563;-69
2022/11/08 04:31:01;;;;;;;38.42;23.95;;;;;;;;;;4918267;29;20048;-70
2022/11/08 04:33:29;;;;;;;44.10;24.25;;;;;;;;;;4918579;29;20486;-69
2022/11/08 04:36:00;;;;;;;37.00;23.65;;;;;;;;;;4918794;29;20071;-69
2022/11/08 04:38:29;;;;;;;50.42;30.63;;;;;;;;;;4918300;29;20048;-69
2022/11/08 04:41:15;;;;;;;73.82;55.10;;;;;;;;;;4918566;29;20083;-69
2022/11/08 04:43:42;;;;;;;85.63;67.07;;;;;;;;;;4918289;29;20040;-69
2022/11/08 04:46:11;;;;;;;54.08;44.35;;;;;;;;;;4918308;29;20509;-70
2022/11/08 04:48:39;;;;;;;65.07;50.40;;;;;;;;;;4918472;29;20072;-69
2022/11/08 04:51:08;;;;;;;65.22;51.08;;;;;;;;;;4916749;29;20051;-70
2022/11/08 04:53:35;;;;;;;70.30;53.28;;;;;;;;;;4918109;29;20075;-70
2022/11/08 04:56:23;;;;;;;99.95;78.05;;;;;;;;;;4918255;29;20123;-70
2022/11/08 04:58:51;;;;;;;97.05;77.90;;;;;;;;;;4918233;29;20052;-70
2022/11/08 05:01:20;;;;;;;100.78;84.47;;;;;;;;;;4918254;29;20072;-73
2022/11/08 05:03:49;;;;;;;108.28;89.15;;;;;;;;;;4918062;29;20044;-73
2022/11/08 05:06:24;;;;;;;82.30;62.20;;;;;;;;;;4918044;29;20451;-73
2022/11/08 05:08:53;;;;;;;67.22;49.95;;;;;;;;;;4918025;29;20107;-71
2022/11/08 05:11:22;;;;;;;38.25;22.42;;;;;;;;;;4917933;29;20398;-71
2022/11/08 05:13:49;;;;;;;29.55;15.95;;;;;;;;;;4917890;29;20044;-71
2022/11/08 05:16:18;;;;;;;38.03;19.20;;;;;;;;;;4917914;29;20071;-70
2022/11/08 05:18:46;;;;;;;28.98;16.80;;;;;;;;;;4917739;29;20048;-70
2022/11/08 05:24:01;;;;;;;41.65;22.52;;;;;;;;;;4918016;29;20050;-70
2022/11/08 05:26:29;;;;;;;30.83;19.35;;;;;;;;;;4917724;29;20499;-70
2022/11/08 05:28:56;;;;;;;42.35;19.02;;;;;;;;;;4917519;29;20513;-70
2022/11/08 05:31:24;;;;;;;31.27;18.05;;;;;;;;;;4917530;29;20075;-70
2022/11/08 05:33:54;;;;;;;36.45;17.02;;;;;;;;;;4917535;29;20048;-70
2022/11/08 05:36:22;;;;;;;30.90;16.10;;;;;;;;;;4917629;29;20040;-70
2022/11/08 05:38:49;;;;;;;34.80;18.38;;;;;;;;;;4917402;29;20056;-70
2022/11/08 05:41:18;;;;;;;31.48;18.77;;;;;;;;;;4917547;29;20083;-70
2022/11/08 05:43:46;;;;;;;31.27;17.00;;;;;;;;;;4917269;29;20590;-70
2022/11/08 05:46:14;;;;;;;28.63;16.92;;;;;;;;;;4917349;29;20471;-71
2022/11/08 05:48:42;;;;;;;29.70;16.73;;;;;;;;;;4917584;29;20131;-72
2022/11/08 05:51:11;;;;;;;32.67;17.25;;;;;;;;;;4917021;29;20078;-71
2022/11/08 05:53:41;;;;;;;60.00;22.83;;;;;;;;;;4916992;29;20046;-71
2022/11/08 05:56:09;;;;;;;62.13;22.15;;;;;;;;;;4916786;29;20079;-71
2022/11/08 05:58:36;;;;;;;29.95;15.38;;;;;;;;;;4917123;29;20539;-71
2022/11/08 06:01:11;;;;;;;39.15;15.13;;;;;;;;;;4917044;29;20052;-71
2022/11/08 06:03:39;;;;;;;21.30;11.77;;;;;;;;;;4917120;29;20048;-71
2022/11/08 06:06:08;;;;;;;25.73;13.30;;;;;;;;;;4918604;29;20051;-70
2022/11/08 06:08:36;;;;;;;25.27;12.95;;;;;;;;;;4925060;29;20119;-71
2022/11/08 06:11:04;;;;;;;28.25;13.02;;;;;;;;;;4933116;29;20054;-71
2022/11/08 06:13:31;;;;;;;28.08;14.18;;;;;;;;;;4936061;29;20135;-72
2022/11/08 06:16:01;;;;;;;37.90;16.70;;;;;;;;;;4935957;29;20091;-73
2022/11/08 06:18:28;;;;;;;35.22;16.35;;;;;;;;;;4935777;29;20412;-70
2022/11/08 06:20:58;;;;;;;34.85;15.20;;;;;;;;;;4935865;29;20071;-73
2022/11/08 06:23:26;;;;;;;40.78;17.88;;;;;;;;;;4935618;29;20053;-72
2022/11/08 06:25:53;;;;;;;34.90;15.82;;;;;;;;;;4935723;29;20044;-73
2022/11/08 06:28:21;;;;;;;39.28;20.10;;;;;;;;;;4935679;29;20126;-71
2022/11/08 06:30:48;;;;;;;42.85;21.42;;;;;;;;;;4935640;29;20035;-72
2022/11/08 06:33:16;;;;;;;51.33;23.90;;;;;;;;;;4926915;29;20125;-72
2022/11/08 06:35:44;;;;;;;68.22;28.25;;;;;;;;;;4935653;29;20051;-71
2022/11/08 06:38:11;;;;;;;61.50;27.60;;;;;;;;;;4935334;29;20138;-72
2022/11/08 06:40:39;;;;;;;60.60;26.42;;;;;;;;;;4935521;29;20061;-72
2022/11/08 06:43:06;;;;;;;51.15;28.20;;;;;;;;;;4935537;29;20075;-72
2022/11/08 06:45:34;;;;;;;56.72;28.40;;;;;;;;;;4935580;29;20043;-73
2022/11/08 06:48:02;;;;;;;48.88;25.75;;;;;;;;;;4934263;29;20051;-72
2022/11/08 06:50:30;;;;;;;41.33;23.40;;;;;;;;;;4935467;29;20047;-72
2022/11/08 06:52:58;;;;;;;47.05;24.48;;;;;;;;;;4935431;29;20546;-72
2022/11/08 06:55:25;;;;;;;49.38;23.13;;;;;;;;;;4935378;29;20079;-72
2022/11/08 06:57:53;;;;;;;54.72;22.67;;;;;;;;;;4935319;29;20090;-72
2022/11/08 07:00:20;;;;;;;44.58;22.65;;;;;;;;;;4935242;29;20047;-75
2022/11/08 07:02:54;;;;;;;49.28;22.90;;;;;;;;;;4935415;29;20566;-72
2022/11/08 07:05:22;;;;;;;41.67;20.65;;;;;;;;;;4926667;29;20055;-71
2022/11/08 07:07:52;;;;;;;35.92;20.60;;;;;;;;;;4918728;29;20103;-71
2022/11/08 07:10:21;;;;;;;43.60;23.02;;;;;;;;;;4920264;29;20399;-71
2022/11/08 07:12:49;;;;;;;37.17;21.27;;;;;;;;;;4919868;29;20075;-71
2022/11/08 07:15:17;;;;;;;39.50;22.35;;;;;;;;;;4935878;29;20047;-71
2022/11/08 07:17:44;;;;;;;43.47;22.80;;;;;;;;;;4938874;29;20050;-71
2022/11/08 07:20:12;;;;;;;50.70;21.80;;;;;;;;;;4938878;29;20047;-71
2022/11/08 07:22:39;;;;;;;43.72;21.45;;;;;;;;;;4938617;29;20501;-71
2022/11/08 07:25:07;;;;;;;38.75;20.92;;;;;;;;;;4938747;29;20506;-71
2022/11/08 07:27:34;;;;;;;37.42;20.77;;;;;;;;;;4938884;29;20043;-71
2022/11/08 07:30:02;;;;;;;44.83;18.58;;;;;;;;;;4938904;29;20075;-71
2022/11/08 07:32:29;;;;;;;34.83;19.25;;;;;;;;;;4938741;29;20044;-70
2022/11/08 07:34:56;;;;;;;27.27;15.48;;;;;;;;;;4938941;29;20130;-71
2022/11/08 07:37:24;;;;;;;26.88;14.57;;;;;;;;;;4938434;29;20043;-71
2022/11/08 07:39:51;;;;;;;29.45;14.52;;;;;;;;;;4938719;29;20555;-71
2022/11/08 07:42:19;;;;;;;27.83;14.93;;;;;;;;;;4938489;29;20036;-72
2022/11/08 07:44:59;;;;;;;24.83;14.05;;;;;;;;;;4937199;29;20095;-71
2022/11/08 07:47:27;;;;;;;20.92;13.30;;;;;;;;;;4938507;29;20216;-72
2022/11/08 07:49:54;;;;;;;22.13;13.63;;;;;;;;;;4937400;29;20075;-71
2022/11/08 07:52:22;;;;;;;18.15;12.27;;;;;;;;;;4938339;29;20043;-71
2022/11/08 07:54:49;;;;;;;22.02;13.18;;;;;;;;;;4938348;29;20079;-72
2022/11/08 07:57:16;;;;;;;23.00;13.00;;;;;;;;;;4938392;29;20039;-71
2022/11/08 07:59:44;;;;;;;24.05;13.27;;;;;;;;;;4938324;29;20132;-72
2022/11/08 08:02:11;;;;;;;21.92;12.35;;;;;;;;;;4938324;29;20044;-72
2022/11/08 08:04:39;;;;;;;25.58;13.15;;;;;;;;;;4938174;29;20347;-71
2022/11/08 08:07:07;;;;;;;31.27;14.77;;;;;;;;;;4938267;29;20470;-71
2022/11/08 08:09:34;;;;;;;26.13;13.43;;;;;;;;;;4936990;29;20060;-72
2022/11/08 08:12:02;;;;;;;28.75;12.90;;;;;;;;;;4938099;29;20067;-72
2022/11/08 08:14:30;;;;;;;29.67;13.90;;;;;;;;;;4937983;29;20055;-72
2022/11/08 08:16:57;;;;;;;21.75;13.07;;;;;;;;;;4938021;29;20067;-71
2022/11/08 08:19:25;;;;;;;25.08;14.95;;;;;;;;;;4937419;29;20071;-71
2022/11/08 08:21:52;;;;;;;30.65;15.38;;;;;;;;;;4937093;29;20541;-70
2022/11/08 08:24:19;;;;;;;23.42;14.90;;;;;;;;;;4937981;29;20131;-72
2022/11/08 08:26:47;;;;;;;30.45;15.55;;;;;;;;;;4937944;29;20055;-72
2022/11/08 08:29:15;;;;;;;28.40;15.85;;;;;;;;;;4937884;29;20175;-72
2022/11/08 08:31:42;;;;;;;36.53;17.02;;;;;;;;;;4936641;29;20040;-72
2022/11/08 08:34:09;;;;;;;27.70;15.52;;;;;;;;;;4937525;29;20047;-71
2022/11/08 08:36:37;;;;;;;27.75;15.55;;;;;;;;;;4937433;29;20154;-72
2022/11/08 08:39:04;;;;;;;26.77;16.27;;;;;;;;;;4937654;29;20059;-72
2022/11/08 08:41:32;;;;;;;29.38;15.27;;;;;;;;;;4937321;29;20126;-72
2022/11/08 08:44:00;;;;;;;26.83;15.75;;;;;;;;;;4937776;29;20402;-71
2022/11/08 08:46:28;;;;;;;31.38;14.98;;;;;;;;;;4937485;29;20494;-71
2022/11/08 08:48:55;;;;;;;23.58;14.18;;;;;;;;;;4937496;29;20122;-72
2022/11/08 08:51:22;;;;;;;32.25;15.43;;;;;;;;;;4937649;29;20051;-72
2022/11/08 08:53:50;;;;;;;34.53;16.92;;;;;;;;;;4937341;29;20104;-72
2022/11/08 08:56:17;;;;;;;22.33;15.23;;;;;;;;;;4937357;29;20047;-72
2022/11/08 08:58:45;;;;;;;24.95;15.77;;;;;;;;;;4937328;29;20074;-73
2022/11/08 09:01:14;;;;;;;25.55;14.55;;;;;;;;;;4937353;29;20074;-72
2022/11/08 09:04:01;;;;;;;29.50;16.73;;;;;;;;;;4937082;29;20075;-72
2022/11/08 09:06:29;;;;;;;25.48;15.05;;;;;;;;;;4937150;29;20047;-71
2022/11/08 09:08:56;;;;;;;24.35;15.98;;;;;;;;;;4937139;29;20039;-72
2022/11/08 09:11:24;;;;;;;31.77;16.27;;;;;;;;;;4937160;29;20558;-72
2022/11/08 09:13:51;;;;;;;23.67;15.38;;;;;;;;;;4936973;29;20044;-71
2022/11/08 09:16:18;;;;;;;27.17;16.42;;;;;;;;;;4937002;29;20082;-73
2022/11/08 09:18:46;;;;;;;27.52;15.68;;;;;;;;;;4936892;29;20059;-71
2022/11/08 09:21:14;;;;;;;30.45;15.52;;;;;;;;;;4935684;29;20104;-71
2022/11/08 09:23:41;;;;;;;30.25;15.68;;;;;;;;;;4936939;29;20081;-72
2022/11/08 09:26:10;;;;;;;25.92;16.02;;;;;;;;;;4936688;29;20134;-71
2022/11/08 09:28:37;;;;;;;25.77;16.20;;;;;;;;;;4935384;29;20047;-71
2022/11/08 09:31:09;;;;;;;29.58;16.35;;;;;;;;;;4935832;29;20123;-72
2022/11/08 09:33:37;;;;;;;27.23;16.90;;;;;;;;;;4936583;29;20120;-71
2022/11/08 09:36:06;;;;;;;27.50;16.52;;;;;;;;;;4936563;29;20051;-71
2022/11/08 09:38:34;;;;;;;36.70;16.25;;;;;;;;;;4936320;29;20055;-72
2022/11/08 09:41:07;;;;;;;36.08;16.98;;;;;;;;;;4935132;29;20438;-71
2022/11/08 09:43:51;;;;;;;33.20;17.45;;;;;;;;;;4936464;29;20047;-71
2022/11/08 09:46:26;;;;;;;23.05;14.38;;;;;;;;;;4936392;29;20062;-71
2022/11/08 09:48:55;;;;;;;26.20;15.40;;;;;;;;;;4936410;29;20114;-71
2022/11/08 09:51:23;;;;;;;29.92;17.45;;;;;;;;;;4936301;29;20167;-71
2022/11/08 09:53:55;;;;;;;26.52;17.30;;;;;;;;;;4936097;29;20043;-71
2022/11/08 09:56:34;;;;;;;28.60;16.33;;;;;;;;;;4936390;29;20055;-71
2022/11/08 09:59:26;;;;;;;31.02;16.52;;;;;;;;;;4936074;29;20399;-71
2022/11/08 10:01:53;;;;;;;26.55;16.75;;;;;;;;;;4936442;29;20371;-72
2022/11/08 10:04:23;;;;;;;30.77;16.58;;;;;;;;;;4936010;29;20044;-71
2022/11/08 10:06:53;;;;;;;25.10;14.57;;;;;;;;;;4936057;29;20498;-71
2022/11/08 10:09:31;;;;;;;25.50;14.77;;;;;;;;;;4935897;29;20075;-71
2022/11/08 10:12:17;;;;;;;24.08;13.43;;;;;;;;;;4936044;29;20047;-71
2022/11/08 10:14:59;;;;;;;23.63;13.35;;;;;;;;;;4934704;29;20553;-72
2022/11/08 10:17:32;;;;;;;23.73;12.95;;;;;;;;;;4935909;29;20078;-70
2022/11/08 10:20:20;;;;;;;26.35;15.60;;;;;;;;;;4935872;29;20048;-71
2022/11/08 10:22:56;;;;;;;28.85;15.95;;;;;;;;;;4935759;29;20443;-71
2022/11/08 10:25:24;;;;;;;42.95;25.08;;;;;;;;;;4935771;29;20043;-71
2022/11/08 10:27:53;;;;;;;59.22;14.82;;;;;;;;;;4935654;29;20446;-71
2022/11/08 10:30:22;;;;;;;56.60;26.48;;;;;;;;;;4935746;29;20486;-71
2022/11/08 10:32:53;;;;;;;98.38;51.75;;;;;;;;;;4935773;29;20127;-71
2022/11/08 10:35:26;;;;;;;65.50;36.97;;;;;;;;;;4935520;29;20490;-71
2022/11/08 10:37:55;;;;;;;104.97;57.35;;;;;;;;;;4935512;29;20052;-71
2022/11/08 10:40:28;;;;;;;53.55;30.98;;;;;;;;;;4935609;29;20135;-71
2022/11/08 10:42:59;;;;;;;194.40;101.25;;;;;;;;;;4935570;29;20044;-71
2022/11/08 10:45:31;;;;;;;181.82;92.68;;;;;;;;;;4935572;29;20032;-70
2022/11/08 10:47:59;;;;;;;93.40;48.20;;;;;;;;;;4935454;29;20082;-69
2022/11/08 10:50:49;;;;;;;140.32;71.85;;;;;;;;;;4935474;29;20414;-70
2022/11/08 10:53:20;;;;;;;76.20;40.13;;;;;;;;;;4934261;29;20375;-71
2022/11/08 10:55:49;;;;;;;30.02;18.15;;;;;;;;;;4935522;29;20461;-71
2022/11/08 10:58:36;;;;;;;115.30;59.72;;;;;;;;;;4935762;29;20449;-71
2022/11/08 11:01:13;;;;;;;94.40;48.13;;;;;;;;;;4934159;29;20524;-71
2022/11/08 11:03:40;;;;;;;65.57;36.03;;;;;;;;;;4935296;29;20064;-71
2022/11/08 11:06:20;;;;;;;146.45;75.75;;;;;;;;;;4935225;29;20127;-71
2022/11/08 11:08:48;;;;;;;53.42;25.35;;;;;;;;;;4935267;29;20048;-71
2022/11/08 11:11:26;;;;;;;110.80;58.05;;;;;;;;;;4935297;29;20075;-71
2022/11/08 11:14:06;;;;;;;88.45;45.70;;;;;;;;;;4935119;29;20107;-71
2022/11/08 11:17:10;;;;;;;76.75;37.15;;;;;;;;;;4935126;29;20084;-71
2022/11/08 11:19:37;;;;;;;73.65;38.75;;;;;;;;;;4876383;29;20065;-71
2022/11/08 11:22:06;;;;;;;61.60;15.70;;;;;;;;;;4923452;29;20055;-72
2022/11/08 11:24:35;;;;;;;140.00;42.58;;;;;;;;;;4933953;29;20138;-72
2022/11/08 11:27:04;;;;;;;82.82;43.63;;;;;;;;;;4935140;29;20040;-72
2022/11/08 11:29:36;;;;;;;75.18;32.90;;;;;;;;;;4935080;29;20044;-71
2022/11/08 11:32:22;;;;;;;41.13;16.75;;;;;;;;;;4935216;29;20052;-71
2022/11/08 11:34:51;;;;;;;84.88;25.38;;;;;;;;;;4934800;29;20050;-72
2022/11/08 11:37:22;;;;;;;94.57;43.30;;;;;;;;;;4934887;29;20133;-71
2022/11/08 11:40:08;;;;;;;31.95;16.83;;;;;;;;;;4934898;29;20083;-71
2022/11/08 11:42:43;;;;;;;50.95;28.33;;;;;;;;;;4934967;29;20046;-72
2022/11/08 11:45:21;;;;;;;27.85;14.65;;;;;;;;;;4934997;29;20040;-71
2022/11/08 11:47:56;;;;;;;29.35;16.33;;;;;;;;;;4934849;29;20059;-71
2022/11/08 11:50:26;;;;;;;26.33;13.77;;;;;;;;;;4934869;29;20394;-71
2022/11/08 11:52:55;;;;;;;49.53;27.50;;;;;;;;;;4935593;29;20047;-71
2022/11/08 11:55:26;;;;;;;29.77;17.92;;;;;;;;;;4938272;29;20084;-71
2022/11/08 11:58:13;;;;;;;39.92;23.02;;;;;;;;;;4938186;29;20491;-71
2022/11/08 12:00:46;;;;;;;23.55;14.77;;;;;;;;;;4938109;29;20099;-71
2022/11/08 12:03:20;;;;;;;22.67;11.73;;;;;;;;;;4938172;29;20082;-71
2022/11/08 12:06:01;;;;;;;43.28;16.13;;;;;;;;;;4938281;29;20039;-72
2022/11/08 12:08:28;;;;;;;23.88;12.38;;;;;;;;;;4938215;29;20054;-71
2022/11/08 12:11:05;;;;;;;46.53;12.25;;;;;;;;;;4938183;29;20036;-72
2022/11/08 12:13:35;;;;;;;22.33;10.85;;;;;;;;;;4938111;29;20585;-72
2022/11/08 12:16:06;;;;;;;23.15;12.20;;;;;;;;;;4937949;29;20384;-72
2022/11/08 12:18:33;;;;;;;23.08;11.27;;;;;;;;;;4937917;29;20040;-72
2022/11/08 12:21:22;;;;;;;31.63;12.18;;;;;;;;;;4937770;29;20043;-72
2022/11/08 12:23:52;;;;;;;18.35;10.45;;;;;;;;;;4937750;29;20052;-71
2022/11/08 12:26:26;;;;;;;27.48;12.15;;;;;;;;;;4937568;29;20040;-72
2022/11/08 12:29:18;;;;;;;31.92;13.18;;;;;;;;;;4937382;29;20118;-71
2022/11/08 12:32:06;;;;;;;20.45;10.52;;;;;;;;;;4937948;29;20047;-71
2022/11/08 12:34:36;;;;;;;18.67;9.93;;;;;;;;;;4937504;29;20078;-73
2022/11/08 12:37:26;;;;;;;25.55;14.52;;;;;;;;;;4936137;29;20518;-72
2022/11/08 12:40:00;;;;;;;22.27;11.63;;;;;;;;;;4937595;29;20071;-72
2022/11/08 12:42:28;;;;;;;23.77;12.95;;;;;;;;;;4937621;29;20047;-72
2022/11/08 12:45:01;;;;;;;30.13;16.08;;;;;;;;;;4937412;29;20050;-72
2022/11/08 12:47:41;;;;;;;25.38;14.45;;;;;;;;;;4937437;29;20047;-73
2022/11/08 12:50:19;;;;;;;38.60;20.33;;;;;;;;;;4937432;29;20083;-72
2022/11/08 12:53:05;;;;;;;22.23;12.57;;;;;;;;;;4938731;29;20047;-75
2022/11/08 12:55:35;;;;;;;21.60;12.25;;;;;;;;;;4937218;29;20098;-71
2022/11/08 12:58:08;;;;;;;21.05;13.35;;;;;;;;;;4939406;29;20095;-73
2022/11/08 13:00:39;;;;;;;16.70;10.63;;;;;;;;;;4939163;29;20131;-73
2022/11/08 13:03:25;;;;;;;18.27;10.07;;;;;;;;;;4938822;29;20151;-73
2022/11/08 13:06:04;;;;;;;23.23;12.80;;;;;;;;;;4929676;29;20107;-73
2022/11/08 13:09:01;;;;;;;36.08;11.80;;;;;;;;;;4927893;29;20502;-73
2022/11/08 13:11:34;;;;;;;19.38;11.20;;;;;;;;;;4916996;29;20102;-73
2022/11/08 13:14:02;;;;;;;36.35;20.88;;;;;;;;;;4928976;29;20475;-73
2022/11/08 13:16:40;;;;;;;15.35;10.68;;;;;;;;;;4927465;29;20360;-73
2022/11/08 13:19:25;;;;;;;17.42;10.75;;;;;;;;;;4925208;29;20064;-75
2022/11/08 13:21:53;;;;;;;;;;;;;;;;;;4919962;29;20128;-74
2022/11/08 13:24:20;;;;;;;19.73;12.82;;;;;;;;;;4928219;29;20282;-75
2022/11/08 13:27:21;;;;;;;20.67;11.80;;;;;;;;;;4921501;29;20071;-74
2022/11/08 13:29:49;;;;;;;24.77;14.85;;;;;;;;;;4918672;29;20132;-74
2022/11/08 13:32:29;;;;;;;20.83;11.48;;;;;;;;;;4918981;29;20044;-74
2022/11/08 13:35:07;;;;;;;23.23;13.90;;;;;;;;;;4919252;29;20054;-74
2022/11/08 13:37:34;;;;;;;19.67;11.88;;;;;;;;;;4918297;29;20052;-73
2022/11/08 13:40:14;;;;;;;21.92;12.52;;;;;;;;;;4919216;29;20044;-74
2022/11/08 13:42:58;;;;;;;22.00;12.25;;;;;;;;;;4919092;29;20058;-74
2022/11/08 13:45:31;;;;;;;20.75;13.07;;;;;;;;;;4920786;29;20452;-74
2022/11/08 13:48:03;;;;;;;36.85;14.60;;;;;;;;;;4922120;29;20123;-73
2022/11/08 13:50:32;;;;;;;19.58;12.63;;;;;;;;;;4928552;29;20044;-72
2022/11/08 13:53:23;;;;;;;20.70;11.68;;;;;;;;;;4926233;29;20044;-74
2022/11/08 13:55:54;;;;;;;21.58;12.70;;;;;;;;;;4894226;29;20406;-72
2022/11/08 13:58:30;;;;;;;24.80;13.85;;;;;;;;;;4916885;29;20048;-72
2022/11/08 14:00:58;;;;;;;21.13;13.15;;;;;;;;;;4916963;29;20385;-72
2022/11/08 14:03:32;;;;;;;20.45;11.98;;;;;;;;;;4916816;29;20355;-71
2022/11/08 14:06:05;;;;;;;21.75;11.75;;;;;;;;;;4916438;29;20052;-71
2022/11/08 14:08:36;;;;;;;21.92;13.68;;;;;;;;;;4919512;29;20506;-71
2022/11/08 14:11:09;;;;;;;22.90;12.52;;;;;;;;;;4926532;29;20443;-73
2022/11/08 14:13:52;;;;;;;20.58;11.82;;;;;;;;;;4935802;29;20130;-71
2022/11/08 14:16:22;;;;;;;35.03;19.70;;;;;;;;;;4922541;29;20048;-71
2022/11/08 14:18:50;;;;;;;50.28;16.25;;;;;;;;;;4921665;29;20040;-74
2022/11/08 14:21:18;;;;;;;23.73;13.70;;;;;;;;;;4917414;29;20060;-75
2022/11/08 14:23:49;;;;;;;25.33;14.55;;;;;;;;;;4917123;29;20044;-73
2022/11/08 14:26:24;;;;;;;22.38;15.55;;;;;;;;;;4916583;29;20048;-74
2022/11/08 14:28:52;;;;;;;29.00;17.63;;;;;;;;;;4918347;29;20100;-73
2022/11/08 14:31:24;;;;;;;37.72;22.58;;;;;;;;;;4923769;29;20075;-74
2022/11/08 14:33:52;;;;;;;33.55;17.55;;;;;;;;;;4925038;29;20044;-75
2022/11/08 14:36:20;;;;;;;49.22;27.13;;;;;;;;;;4918072;29;20082;-76
2022/11/08 14:39:01;;;;;;;42.33;24.35;;;;;;;;;;4943320;29;20048;-73
2022/11/08 14:41:29;;;;;;;47.45;28.65;;;;;;;;;;4909173;29;20514;-71
2022/11/08 14:43:58;;;;;;;38.13;23.20;;;;;;;;;;4933711;29;20126;-68
2022/11/08 14:46:26;;;;;;;36.45;21.92;;;;;;;;;;4908703;29;20049;-77
2022/11/08 14:48:55;;;;;;;35.67;22.27;;;;;;;;;;4930901;29;20085;-76
2022/11/08 14:51:23;;;;;;;41.42;19.02;;;;;;;;;;4921557;29;20466;-74
2022/11/08 14:53:52;;;;;;;95.57;27.63;;;;;;;;;;4921822;29;20443;-74
2022/11/08 14:56:20;;;;;;;52.05;22.48;;;;;;;;;;4924599;29;20043;-74
2022/11/08 14:58:48;;;;;;;34.22;19.90;;;;;;;;;;4926914;29;20062;-77